createdAt,value
2017-09-04T00:01:27.600Z,100017.91
2017-09-04T00:04:28.944Z,100020.44
2017-09-04T00:07:30.520Z,100018.30
2017-09-04T00:10:31.814Z,100015.26
2017-09-04T00:13:33.157Z,100019.26
2017-09-04T00:16:34.448Z,100017.38
2017-09-04T00:19:35.763Z,100009.98
2017-09-04T00:22:37.104Z,100012.47
2017-09-04T00:25:38.597Z,100012.41
2017-09-04T00:28:39.896Z,100008.87
2017-09-04T00:31:41.285Z,100007.31
2017-09-04T00:34:42.600Z,100009.27
2017-09-04T00:37:43.945Z,100011.56
2017-09-04T00:40:45.269Z,100011.04
2017-09-04T00:43:46.866Z,100014.39
2017-09-04T00:46:48.172Z,100011.34
2017-09-04T00:49:49.510Z,100009.67
2017-09-04T00:52:50.860Z,100016.32
2017-09-04T00:55:52.285Z,100004.89
2017-09-04T00:58:54.025Z,100011.16
2017-09-04T01:01:55.367Z,100012.90
2017-09-04T01:04:56.709Z,100016.50
2017-09-04T01:07:58.056Z,100008.30
2017-09-04T01:10:59.441Z,99996.35
2017-09-04T01:14:00.820Z,99994.14
2017-09-04T01:17:02.188Z,99999.89
2017-09-04T01:20:03.518Z,100007.47
2017-09-04T01:23:04.869Z,100010.72
2017-09-04T01:26:06.325Z,100011.53
2017-09-04T01:29:07.642Z,100003.20
2017-09-04T01:32:09.012Z,99999.40
2017-09-04T01:35:10.322Z,100001.85
2017-09-04T01:38:11.685Z,99999.28
2017-09-04T01:41:13.007Z,100002.11
2017-09-04T01:44:14.339Z,100007.43
2017-09-04T01:47:15.621Z,100015.38
2017-09-04T01:50:16.985Z,100011.70
2017-09-04T01:53:18.436Z,100014.79
2017-09-04T01:56:19.756Z,100018.65
2017-09-04T01:59:21.177Z,100018.29
2017-09-04T02:02:22.465Z,100001.56
2017-09-04T02:05:23.789Z,100012.11
2017-09-04T02:08:25.088Z,100012.44
2017-09-04T02:11:26.432Z,100009.73
2017-09-04T02:14:27.736Z,100003.15
2017-09-04T02:17:29.073Z,100007.84
2017-09-04T02:20:30.391Z,100014.30
2017-09-04T02:23:31.706Z,100009.70
2017-09-04T02:26:33.036Z,100015.05
2017-09-04T02:29:34.364Z,99999.44
2017-09-04T02:32:35.716Z,100007.38
2017-09-04T02:35:37.018Z,100002.30
2017-09-04T02:38:38.364Z,100006.13
2017-09-04T02:41:39.685Z,100004.31
2017-09-04T02:44:40.998Z,100005.27
2017-09-04T02:47:42.434Z,99997.34
2017-09-04T02:50:43.741Z,99994.14
2017-09-04T02:53:45.073Z,99989.30
2017-09-04T02:56:46.404Z,99989.92
2017-09-04T02:59:47.768Z,99991.31
2017-09-04T03:02:49.079Z,99995.75
2017-09-04T03:05:50.397Z,99984.25
2017-09-04T03:08:51.693Z,99987.53
2017-09-04T03:11:53.042Z,99979.43
2017-09-04T03:14:54.341Z,99985.27
2017-09-04T03:17:55.696Z,99983.73
2017-09-04T03:20:57.277Z,99985.52
2017-09-04T03:23:58.641Z,99981.02
2017-09-04T03:27:00.029Z,99982.41
2017-09-04T03:30:01.414Z,99978.59
2017-09-04T03:33:02.788Z,99983.87
2017-09-04T03:36:04.121Z,99992.09
2017-09-04T03:39:05.490Z,99993.05
2017-09-04T03:42:07.013Z,99990.31
2017-09-04T03:45:08.381Z,99986.41
2017-09-04T03:48:09.769Z,99987.91
2017-09-04T03:51:11.148Z,99996.84
2017-09-04T03:54:12.568Z,100007.98
2017-09-04T03:57:13.933Z,99997.77
2017-09-04T04:00:15.301Z,100000.23
2017-09-04T04:03:16.841Z,100001.47
2017-09-04T04:06:18.189Z,100005.56
2017-09-04T04:09:19.581Z,100001.94
2017-09-04T04:12:20.944Z,100001.59
2017-09-04T04:15:22.365Z,100000.29
2017-09-04T04:18:23.684Z,100004.44
2017-09-04T04:21:25.052Z,100005.39
2017-09-04T04:24:26.511Z,100013.65
2017-09-04T04:27:27.829Z,100007.39
2017-09-04T04:30:29.214Z,100010.91
2017-09-04T04:33:30.529Z,100006.59
2017-09-04T04:36:31.848Z,100013.33
2017-09-04T04:39:33.145Z,100008.72
2017-09-04T04:42:34.461Z,100004.90
2017-09-04T04:45:35.924Z,100005.88
2017-09-04T04:48:37.237Z,100003.39
2017-09-04T04:51:38.581Z,100019.22
2017-09-04T04:54:39.893Z,100020.64
2017-09-04T04:57:41.214Z,100022.56
2017-09-04T05:00:42.524Z,100022.48
2017-09-04T05:03:43.833Z,100031.83
2017-09-04T05:06:45.608Z,100027.19
2017-09-04T05:09:46.891Z,100030.08
2017-09-04T05:12:48.241Z,100021.34
2017-09-04T05:15:49.544Z,100026.03
2017-09-04T05:18:50.873Z,100027.16
2017-09-04T05:21:52.186Z,100033.93
2017-09-04T05:24:53.569Z,100024.23
2017-09-04T05:27:54.889Z,100031.74
2017-09-04T05:30:56.217Z,100027.39
2017-09-04T05:33:57.508Z,100028.76
2017-09-04T05:36:58.849Z,100029.97
2017-09-04T05:40:00.156Z,100020.37
2017-09-04T05:43:01.482Z,100029.73
2017-09-04T05:46:02.921Z,100028.78
2017-09-04T05:49:04.260Z,100031.56
2017-09-04T05:52:05.593Z,100033.11
2017-09-04T05:55:06.869Z,100034.23
2017-09-04T05:58:08.209Z,100041.45
2017-09-04T06:01:09.521Z,100033.92
2017-09-04T06:04:10.877Z,100032.62
2017-09-04T06:07:12.200Z,100036.96
2017-09-04T06:10:13.529Z,100035.77
2017-09-04T06:13:14.830Z,100035.73
2017-09-04T06:16:16.243Z,100033.27
2017-09-04T06:19:17.958Z,100036.53
2017-09-04T06:22:19.268Z,100032.45
2017-09-04T06:25:20.613Z,100037.39
2017-09-04T06:28:21.910Z,100040.25
2017-09-04T06:31:23.242Z,100044.28
2017-09-04T06:34:24.549Z,100045.34
2017-09-04T06:37:25.889Z,100043.69
2017-09-04T06:40:27.260Z,100050.16
2017-09-04T06:43:28.580Z,100051.16
2017-09-04T06:46:29.912Z,100056.34
2017-09-04T06:49:31.240Z,100059.48
2017-09-04T06:52:32.601Z,100067.65
2017-09-04T06:55:34.045Z,100059.20
2017-09-04T06:58:35.360Z,100062.09
2017-09-04T07:01:36.676Z,100072.06
2017-09-04T07:04:37.962Z,100072.48
2017-09-04T07:07:39.337Z,100076.96
2017-09-04T07:10:40.630Z,100079.72
2017-09-04T07:13:42.020Z,100088.59
2017-09-04T07:16:43.364Z,100073.68
2017-09-04T07:19:44.690Z,100074.91
2017-09-04T07:22:46.146Z,100077.98
2017-09-04T07:25:47.452Z,100082.65
2017-09-04T07:28:48.749Z,100090.52
2017-09-04T07:31:50.053Z,100097.75
2017-09-04T07:34:51.377Z,100100.82
2017-09-04T07:37:52.688Z,100097.99
2017-09-04T07:40:54.024Z,100116.28
2017-09-04T07:43:55.337Z,100111.52
2017-09-04T07:46:56.676Z,100112.20
2017-09-04T07:49:58.016Z,100121.91
2017-09-04T07:52:59.345Z,100112.91
2017-09-04T07:56:00.641Z,100109.13
2017-09-04T07:59:01.961Z,100123.45
2017-09-04T08:02:03.249Z,100117.64
2017-09-04T08:05:04.601Z,100118.59
2017-09-04T08:08:05.980Z,100112.38
2017-09-04T08:11:07.333Z,100118.11
2017-09-04T08:14:08.704Z,100122.64
2017-09-04T08:17:10.048Z,100114.41
2017-09-04T08:20:11.357Z,100118.89
2017-09-04T08:23:12.720Z,100119.03
2017-09-04T08:26:14.014Z,100126.30
2017-09-04T08:29:15.341Z,100130.22
2017-09-04T08:32:17.054Z,100126.73
2017-09-04T08:35:18.337Z,100123.02
2017-09-04T08:38:19.703Z,100121.16
2017-09-04T08:41:21.056Z,100126.27
2017-09-04T08:44:22.428Z,100133.32
2017-09-04T08:47:23.710Z,100132.39
2017-09-04T08:50:25.038Z,100134.61
2017-09-04T08:53:26.388Z,100138.48
2017-09-04T08:56:27.969Z,100141.94
2017-09-04T08:59:29.277Z,100134.23
2017-09-04T09:02:30.672Z,100132.19
2017-09-04T09:05:32.132Z,100133.59
2017-09-04T09:08:33.442Z,100141.30
2017-09-04T09:11:34.749Z,100141.38
2017-09-04T09:14:36.090Z,100133.43
2017-09-04T09:17:37.429Z,100130.77
2017-09-04T09:20:38.737Z,100121.23
2017-09-04T09:23:40.148Z,100124.50
2017-09-04T09:26:41.604Z,100130.83
2017-09-04T09:29:42.924Z,100129.97
2017-09-04T09:32:44.265Z,100143.53
2017-09-04T09:35:45.557Z,100131.70
2017-09-04T09:38:46.908Z,100140.56
2017-09-04T09:41:48.213Z,100137.52
2017-09-04T09:44:49.552Z,100136.54
2017-09-04T09:47:50.889Z,100133.42
2017-09-04T09:50:52.276Z,100126.70
2017-09-04T09:53:53.625Z,100129.14
2017-09-04T09:56:55.094Z,100144.86
2017-09-04T09:59:56.424Z,100143.41
2017-09-04T10:02:57.773Z,100142.55
2017-09-04T10:05:59.116Z,100137.33
2017-09-04T10:09:00.453Z,100144.64
2017-09-04T10:12:01.797Z,100137.83
2017-09-04T10:15:03.142Z,100143.73
2017-09-04T10:18:04.590Z,100143.51
2017-09-04T10:21:05.907Z,100156.72
2017-09-04T10:24:07.336Z,100156.45
2017-09-04T10:27:08.676Z,100164.20
2017-09-04T10:30:10.070Z,100164.84
2017-09-04T10:33:11.393Z,100159.14
2017-09-04T10:36:12.736Z,100155.38
2017-09-04T10:39:14.077Z,100154.91
2017-09-04T10:42:15.440Z,100146.95
2017-09-04T10:45:16.769Z,100154.42
2017-09-04T10:48:18.153Z,100143.55
2017-09-04T10:51:19.488Z,100144.42
2017-09-04T10:54:20.864Z,100139.16
2017-09-04T10:57:22.251Z,100148.05
2017-09-04T11:00:23.633Z,100152.27
2017-09-04T11:03:24.929Z,100143.33
2017-09-04T11:06:26.265Z,100146.06
2017-09-04T11:09:27.571Z,100150.95
2017-09-04T11:12:28.936Z,100160.28
2017-09-04T11:15:30.286Z,100153.31
2017-09-04T11:18:31.769Z,100150.88
2017-09-04T11:21:33.077Z,100155.78
2017-09-04T11:24:34.518Z,100157.77
2017-09-04T11:27:35.837Z,100145.28
2017-09-04T11:30:37.293Z,100155.70
2017-09-04T11:33:38.609Z,100146.48
2017-09-04T11:36:39.969Z,100139.73
2017-09-04T11:39:41.308Z,100144.09
2017-09-04T11:42:42.621Z,100136.05
2017-09-04T11:45:43.909Z,100140.77
2017-09-04T11:48:45.264Z,100141.55
2017-09-04T11:51:46.621Z,100147.03
2017-09-04T11:54:47.985Z,100146.23
2017-09-04T11:57:49.262Z,100149.35
2017-09-04T12:00:50.658Z,100144.76
2017-09-04T12:03:51.981Z,100157.88
2017-09-04T12:06:53.281Z,100151.24
2017-09-04T12:09:54.741Z,100157.94
2017-09-04T12:12:56.092Z,100160.31
2017-09-04T12:15:57.433Z,100157.89
2017-09-04T12:18:58.760Z,100152.97
2017-09-04T12:22:00.081Z,100150.20
2017-09-04T12:25:01.448Z,100154.33
2017-09-04T12:28:02.829Z,100152.81
2017-09-04T12:31:04.173Z,100146.41
2017-09-04T12:34:05.557Z,100147.12
2017-09-04T12:37:06.841Z,100138.53
2017-09-04T12:40:08.177Z,100148.89
2017-09-04T12:43:09.680Z,100151.40
2017-09-04T12:46:11.017Z,100160.22
2017-09-04T12:49:12.389Z,100155.11
2017-09-04T12:52:13.736Z,100156.41
2017-09-04T12:55:15.073Z,100147.31
2017-09-04T12:58:16.370Z,100149.48
2017-09-04T13:01:17.714Z,100150.48
2017-09-04T13:04:19.065Z,100150.48
2017-09-04T13:07:20.457Z,100154.50
2017-09-04T13:10:27.917Z,100165.40
2017-09-04T13:13:29.290Z,100173.98
2017-09-04T13:16:36.626Z,100174.98
2017-09-04T13:19:44.014Z,100170.98
2017-09-04T13:26:27.853Z,100171.12
2017-09-04T13:29:35.248Z,100168.98
2017-09-04T13:36:22.906Z,100170.17
2017-09-04T13:43:06.560Z,100178.52
2017-09-04T13:46:13.853Z,100183.59
2017-09-04T13:49:15.225Z,100172.81
2017-09-04T13:52:22.757Z,100172.07
2017-09-04T13:58:58.149Z,100169.62
2017-09-04T14:02:05.501Z,100166.16
2017-09-04T14:08:47.065Z,100171.93
2017-09-04T14:11:54.428Z,100179.25
2017-09-04T14:14:58.725Z,100173.92
2017-09-04T14:18:06.057Z,100181.66
2017-09-04T14:21:07.452Z,100172.97
2017-09-04T14:24:08.773Z,100161.42
2017-09-04T14:27:10.162Z,100160.41
2017-09-04T14:30:11.508Z,100158.06
2017-09-04T14:33:12.864Z,100163.34
2017-09-04T14:36:14.508Z,100163.46
2017-09-04T14:39:15.858Z,100154.19
2017-09-04T14:42:17.236Z,100168.98
2017-09-04T14:45:18.579Z,100157.77
2017-09-04T14:48:19.933Z,100152.33
2017-09-04T14:51:21.249Z,100152.66
2017-09-04T14:54:22.644Z,100156.61
2017-09-04T14:57:24.003Z,100152.45
2017-09-04T15:00:25.399Z,100149.81
2017-09-04T15:03:26.725Z,100154.54
2017-09-04T15:06:28.096Z,100154.56
2017-09-04T15:09:29.413Z,100155.78
2017-09-04T15:12:30.754Z,100151.61
2017-09-04T15:15:32.080Z,100151.94
2017-09-04T15:18:33.452Z,100154.50
2017-09-04T15:21:34.770Z,100150.83
2017-09-04T15:24:36.101Z,100154.77
2017-09-04T15:27:37.489Z,100149.69
2017-09-04T15:30:38.827Z,100144.89
2017-09-04T15:33:40.311Z,100140.65
2017-09-04T15:36:41.649Z,100142.19
2017-09-04T15:39:43.036Z,100153.56
2017-09-04T15:42:44.397Z,100155.97
2017-09-04T15:45:45.788Z,100158.14
2017-09-04T15:48:47.118Z,100167.92
2017-09-04T15:51:48.492Z,100179.64
2017-09-04T15:54:49.825Z,100172.06
2017-09-04T15:57:51.209Z,100179.89
2017-09-04T16:00:52.556Z,100183.17
2017-09-04T16:03:53.897Z,100183.98
2017-09-04T16:06:55.440Z,100178.70
2017-09-04T16:09:56.787Z,100173.58
2017-09-04T16:13:08.517Z,100175.61
2017-09-04T16:16:09.828Z,100172.53
2017-09-04T16:19:11.312Z,100178.36
2017-09-04T16:25:53.714Z,100179.13
2017-09-04T16:36:07.128Z,100200.38
2017-09-04T16:39:23.380Z,100208.48
2017-09-04T16:42:34.676Z,100210.96
2017-09-04T16:45:36.015Z,100202.73
2017-09-04T16:48:43.269Z,100201.10
2017-09-04T16:51:55.386Z,100200.77
2017-09-04T16:54:57.513Z,100202.14
2017-09-04T16:57:58.873Z,100204.98
2017-09-04T17:01:00.194Z,100208.03
2017-09-04T17:04:01.529Z,100209.41
2017-09-04T17:07:02.921Z,100200.31
2017-09-04T17:10:04.229Z,100198.42
2017-09-04T17:13:05.737Z,100201.36
2017-09-04T17:16:09.113Z,100204.73
2017-09-04T17:19:11.365Z,100206.23
2017-09-04T17:22:12.733Z,100210.17
2017-09-04T17:28:43.450Z,100206.73
2017-09-04T17:31:44.812Z,100206.86
2017-09-04T17:34:46.314Z,100214.59
2017-09-04T17:37:47.645Z,100207.26
2017-09-04T17:40:49.022Z,100210.48
2017-09-04T17:43:50.369Z,100212.38
2017-09-04T17:46:51.741Z,100212.09
2017-09-04T17:49:53.121Z,100220.68
2017-09-04T17:52:54.504Z,100218.52
2017-09-04T17:55:55.857Z,100227.91
2017-09-04T17:58:57.270Z,100231.72
2017-09-04T18:01:58.772Z,100236.85
2017-09-04T18:05:00.121Z,100242.36
2017-09-04T18:08:01.816Z,100244.84
2017-09-04T18:11:03.126Z,100250.23
2017-09-04T18:14:04.493Z,100252.03
2017-09-04T18:17:05.862Z,100256.09
2017-09-04T18:20:07.255Z,100256.86
2017-09-04T18:23:08.617Z,100258.06
2017-09-04T18:26:10.029Z,100273.90
2017-09-04T18:29:11.753Z,100281.30
2017-09-04T18:32:13.169Z,100279.80
2017-09-04T18:35:14.502Z,100293.89
2017-09-04T18:38:15.857Z,100291.84
2017-09-04T18:41:17.255Z,100290.17
2017-09-04T18:44:18.602Z,100283.27
2017-09-04T18:47:20.044Z,100286.12
2017-09-04T18:50:21.378Z,100294.98
2017-09-04T18:53:22.750Z,100297.86
2017-09-04T18:56:24.230Z,100302.61
2017-09-04T18:59:25.574Z,100305.02
2017-09-04T19:02:27.187Z,100305.81
2017-09-04T19:05:28.589Z,100307.36
2017-09-04T19:08:29.964Z,100309.92
2017-09-04T19:11:31.491Z,100305.98
2017-09-04T19:14:32.882Z,100320.72
2017-09-04T19:17:34.255Z,100320.83
2017-09-04T19:20:35.680Z,100322.95
2017-09-04T19:23:37.052Z,100321.60
2017-09-04T19:26:38.534Z,100310.80
2017-09-04T19:29:40.100Z,100320.91
2017-09-04T19:32:41.455Z,100315.08
2017-09-04T19:35:42.872Z,100316.86
2017-09-04T19:38:44.249Z,100305.00
2017-09-04T19:41:45.613Z,100316.45
2017-09-04T19:44:46.986Z,100318.72
2017-09-04T19:47:48.389Z,100318.34
2017-09-04T19:50:49.892Z,100326.22
2017-09-04T19:53:51.681Z,100317.22
2017-09-04T19:56:53.133Z,100330.09
2017-09-04T19:59:54.433Z,100336.64
2017-09-04T20:02:55.785Z,100332.15
2017-09-04T20:05:57.129Z,100336.23
2017-09-04T20:08:58.457Z,100337.59
2017-09-04T20:11:59.804Z,100336.80
2017-09-04T20:15:01.181Z,100330.61
2017-09-04T20:18:02.505Z,100334.75
2017-09-04T20:21:03.901Z,100334.93
2017-09-04T20:24:05.332Z,100335.19
2017-09-04T20:27:06.779Z,100335.39
2017-09-04T20:30:08.217Z,100334.06
2017-09-04T20:33:09.517Z,100329.89
2017-09-04T20:36:10.864Z,100340.80
2017-09-04T20:39:12.200Z,100331.45
2017-09-04T20:42:13.528Z,100344.31
2017-09-04T20:45:14.870Z,100336.33
2017-09-04T20:48:16.252Z,100341.05
2017-09-04T20:51:17.597Z,100341.29
2017-09-04T20:54:18.938Z,100346.88
2017-09-04T20:57:20.244Z,100348.97
2017-09-04T21:00:21.605Z,100349.47
2017-09-04T21:03:22.974Z,100354.81
2017-09-04T21:06:24.328Z,100357.34
2017-09-04T21:09:25.700Z,100363.87
2017-09-04T21:12:27.054Z,100363.75
2017-09-04T21:15:28.472Z,100361.21
2017-09-04T21:18:29.789Z,100364.70
2017-09-04T21:21:31.181Z,100366.85
2017-09-04T21:24:32.501Z,100365.69
2017-09-04T21:27:33.912Z,100376.75
2017-09-04T21:30:35.228Z,100375.12
2017-09-04T21:33:36.586Z,100370.11
2017-09-04T21:36:37.893Z,100374.69
2017-09-04T21:39:39.243Z,100368.80
2017-09-04T21:42:40.612Z,100368.52
2017-09-04T21:45:41.989Z,100365.57
2017-09-04T21:48:43.293Z,100356.33
2017-09-04T21:51:44.640Z,100369.20
2017-09-04T21:54:46.070Z,100372.61
2017-09-04T21:57:47.383Z,100373.81
2017-09-04T22:00:49.691Z,100369.75
2017-09-04T22:03:51.001Z,100373.78
2017-09-04T22:06:52.357Z,100375.87
2017-09-04T22:09:53.693Z,100378.34
2017-09-04T22:12:55.069Z,100371.20
2017-09-04T22:15:56.725Z,100369.20
2017-09-04T22:18:58.057Z,100375.15
2017-09-04T22:21:59.426Z,100369.98
2017-09-04T22:25:00.745Z,100369.13
2017-09-04T22:28:02.136Z,100368.08
2017-09-04T22:31:03.469Z,100366.95
2017-09-04T22:34:04.864Z,100372.69
2017-09-04T22:37:06.220Z,100370.30
2017-09-04T22:40:07.568Z,100364.60
2017-09-04T22:43:08.888Z,100368.08
2017-09-04T22:46:10.285Z,100371.05
2017-09-04T22:49:11.800Z,100376.46
2017-09-04T22:52:13.156Z,100379.79
2017-09-04T22:55:14.632Z,100371.44
2017-09-04T22:58:16.923Z,100370.53
2017-09-04T23:01:18.256Z,100368.62
2017-09-04T23:04:19.573Z,100373.38
2017-09-04T23:07:20.929Z,100362.66
2017-09-04T23:10:22.276Z,100366.81
2017-09-04T23:13:23.625Z,100363.64
2017-09-04T23:16:25.020Z,100376.53
2017-09-04T23:19:26.325Z,100372.72
2017-09-04T23:22:27.668Z,100367.91
2017-09-04T23:25:28.969Z,100369.71
2017-09-04T23:28:30.357Z,100372.53
2017-09-04T23:31:31.701Z,100370.63
2017-09-04T23:34:33.065Z,100372.55
2017-09-04T23:37:34.369Z,100373.13
2017-09-04T23:40:35.725Z,100374.21
2017-09-04T23:43:37.229Z,100365.45
2017-09-04T23:46:38.513Z,100363.47
2017-09-04T23:49:39.889Z,100356.45
2017-09-04T23:52:41.369Z,100357.71
2017-09-04T23:55:42.705Z,100355.00
2017-09-04T23:58:44.016Z,100367.09
